sensor_id;sensor_type;location;lat;lon;timestamp;P1;durP1;ratioP1;P2;durP2;ratioP2
51780;SDS011;37844;57.126;24.288;2022-08-21T00:02:16;15.00;;;8.02;;
51780;SDS011;37844;57.126;24.288;2022-08-21T00:04:41;21.42;;;7.50;;
51780;SDS011;37844;57.126;24.288;2022-08-21T00:07:07;28.50;;;9.45;;
51780;SDS011;37844;57.126;24.288;2022-08-21T00:09:32;22.60;;;7.55;;
51780;SDS011;37844;57.126;24.288;2022-08-21T00:11:58;33.28;;;9.65;;
51780;SDS011;37844;57.126;24.288;2022-08-21T00:14:23;24.05;;;9.25;;
51780;SDS011;37844;57.126;24.288;2022-08-21T00:16:48;21.45;;;7.38;;
51780;SDS011;37844;57.126;24.288;2022-08-21T00:19:14;30.50;;;8.32;;
51780;SDS011;37844;57.126;24.288;2022-08-21T00:21:39;21.30;;;7.93;;
51780;SDS011;37844;57.126;24.288;2022-08-21T00:24:04;30.23;;;8.75;;
51780;SDS011;37844;57.126;24.288;2022-08-21T00:26:30;25.35;;;9.05;;
51780;SDS011;37844;57.126;24.288;2022-08-21T00:28:55;19.10;;;7.35;;
51780;SDS011;37844;57.126;24.288;2022-08-21T00:31:21;27.23;;;8.70;;
51780;SDS011;37844;57.126;24.288;2022-08-21T00:33:46;24.77;;;7.78;;
51780;SDS011;37844;57.126;24.288;2022-08-21T00:36:12;21.05;;;7.57;;
51780;SDS011;37844;57.126;24.288;2022-08-21T00:38:37;27.50;;;8.88;;
51780;SDS011;37844;57.126;24.288;2022-08-21T00:41:04;17.42;;;8.00;;
51780;SDS011;37844;57.126;24.288;2022-08-21T00:43:31;24.58;;;8.35;;
51780;SDS011;37844;57.126;24.288;2022-08-21T00:45:57;22.67;;;7.32;;
51780;SDS011;37844;57.126;24.288;2022-08-21T00:48:24;14.23;;;8.18;;
51780;SDS011;37844;57.126;24.288;2022-08-21T00:53:44;28.75;;;7.32;;
51780;SDS011;37844;57.126;24.288;2022-08-21T00:56:10;23.40;;;7.93;;
51780;SDS011;37844;57.126;24.288;2022-08-21T00:58:36;20.40;;;7.57;;
51780;SDS011;37844;57.126;24.288;2022-08-21T01:01:03;24.70;;;8.93;;
51780;SDS011;37844;57.126;24.288;2022-08-21T01:03:29;17.63;;;7.30;;
51780;SDS011;37844;57.126;24.288;2022-08-21T01:05:54;24.65;;;8.35;;
51780;SDS011;37844;57.126;24.288;2022-08-21T01:08:20;32.50;;;8.88;;
51780;SDS011;37844;57.126;24.288;2022-08-21T01:10:46;19.13;;;7.93;;
51780;SDS011;37844;57.126;24.288;2022-08-21T01:13:13;24.75;;;7.53;;
51780;SDS011;37844;57.126;24.288;2022-08-21T01:15:40;21.77;;;8.07;;
51780;SDS011;37844;57.126;24.288;2022-08-21T01:18:09;40.72;;;7.20;;
51780;SDS011;37844;57.126;24.288;2022-08-21T01:20:36;26.60;;;6.95;;
51780;SDS011;37844;57.126;24.288;2022-08-21T01:23:02;25.65;;;6.43;;
51780;SDS011;37844;57.126;24.288;2022-08-21T01:25:28;33.80;;;7.97;;
51780;SDS011;37844;57.126;24.288;2022-08-21T01:27:53;24.52;;;7.18;;
51780;SDS011;37844;57.126;24.288;2022-08-21T01:30:23;23.83;;;7.57;;
51780;SDS011;37844;57.126;24.288;2022-08-21T01:32:49;18.35;;;7.00;;
51780;SDS011;37844;57.126;24.288;2022-08-21T01:35:15;33.10;;;8.35;;
51780;SDS011;37844;57.126;24.288;2022-08-21T01:37:41;28.80;;;7.53;;
51780;SDS011;37844;57.126;24.288;2022-08-21T01:40:07;28.58;;;8.05;;
51780;SDS011;37844;57.126;24.288;2022-08-21T01:42:33;25.92;;;7.18;;
51780;SDS011;37844;57.126;24.288;2022-08-21T01:44:58;25.98;;;7.75;;
51780;SDS011;37844;57.126;24.288;2022-08-21T01:47:24;26.70;;;8.35;;
51780;SDS011;37844;57.126;24.288;2022-08-21T01:49:49;18.02;;;7.35;;
51780;SDS011;37844;57.126;24.288;2022-08-21T01:52:15;25.13;;;7.53;;
51780;SDS011;37844;57.126;24.288;2022-08-21T01:54:40;24.05;;;8.48;;
51780;SDS011;37844;57.126;24.288;2022-08-21T01:57:06;28.02;;;8.23;;
51780;SDS011;37844;57.126;24.288;2022-08-21T01:59:32;21.63;;;7.00;;
51780;SDS011;37844;57.126;24.288;2022-08-21T02:01:58;22.65;;;6.60;;
51780;SDS011;37844;57.126;24.288;2022-08-21T02:04:23;23.13;;;7.60;;
51780;SDS011;37844;57.126;24.288;2022-08-21T02:06:48;33.83;;;8.82;;
51780;SDS011;37844;57.126;24.288;2022-08-21T02:09:14;24.92;;;6.88;;
51780;SDS011;37844;57.126;24.288;2022-08-21T02:11:40;25.95;;;7.38;;
51780;SDS011;37844;57.126;24.288;2022-08-21T02:14:09;15.88;;;7.28;;
51780;SDS011;37844;57.126;24.288;2022-08-21T02:16:35;24.65;;;7.85;;
51780;SDS011;37844;57.126;24.288;2022-08-21T02:19:00;26.35;;;7.38;;
51780;SDS011;37844;57.126;24.288;2022-08-21T02:21:26;20.20;;;8.55;;
51780;SDS011;37844;57.126;24.288;2022-08-21T02:23:51;32.40;;;7.45;;
51780;SDS011;37844;57.126;24.288;2022-08-21T02:26:16;27.65;;;8.73;;
51780;SDS011;37844;57.126;24.288;2022-08-21T02:28:42;21.10;;;7.30;;
51780;SDS011;37844;57.126;24.288;2022-08-21T02:31:08;27.67;;;7.03;;
51780;SDS011;37844;57.126;24.288;2022-08-21T02:33:33;25.23;;;7.57;;
51780;SDS011;37844;57.126;24.288;2022-08-21T02:35:59;27.77;;;7.22;;
51780;SDS011;37844;57.126;24.288;2022-08-21T02:38:26;21.17;;;7.43;;
51780;SDS011;37844;57.126;24.288;2022-08-21T02:40:52;22.75;;;6.85;;
51780;SDS011;37844;57.126;24.288;2022-08-21T02:43:18;18.40;;;7.65;;
51780;SDS011;37844;57.126;24.288;2022-08-21T02:45:44;24.27;;;7.53;;
51780;SDS011;37844;57.126;24.288;2022-08-21T02:48:12;21.63;;;7.70;;
51780;SDS011;37844;57.126;24.288;2022-08-21T02:50:39;29.60;;;8.45;;
51780;SDS011;37844;57.126;24.288;2022-08-21T02:53:06;20.92;;;7.88;;
51780;SDS011;37844;57.126;24.288;2022-08-21T02:55:32;32.25;;;8.13;;
51780;SDS011;37844;57.126;24.288;2022-08-21T02:57:58;32.38;;;9.65;;
51780;SDS011;37844;57.126;24.288;2022-08-21T03:00:24;30.25;;;7.53;;
51780;SDS011;37844;57.126;24.288;2022-08-21T03:02:50;28.67;;;8.38;;
51780;SDS011;37844;57.126;24.288;2022-08-21T03:05:15;25.90;;;7.70;;
51780;SDS011;37844;57.126;24.288;2022-08-21T03:07:42;25.33;;;7.78;;
51780;SDS011;37844;57.126;24.288;2022-08-21T03:10:08;21.77;;;6.93;;
51780;SDS011;37844;57.126;24.288;2022-08-21T03:12:33;16.50;;;6.90;;
51780;SDS011;37844;57.126;24.288;2022-08-21T03:15:04;29.73;;;7.97;;
51780;SDS011;37844;57.126;24.288;2022-08-21T03:17:29;28.05;;;8.40;;
51780;SDS011;37844;57.126;24.288;2022-08-21T03:19:55;32.83;;;7.32;;
51780;SDS011;37844;57.126;24.288;2022-08-21T03:22:21;20.45;;;7.25;;
51780;SDS011;37844;57.126;24.288;2022-08-21T03:24:47;20.63;;;8.00;;
51780;SDS011;37844;57.126;24.288;2022-08-21T03:27:12;25.10;;;7.13;;
51780;SDS011;37844;57.126;24.288;2022-08-21T03:29:38;24.58;;;7.93;;
51780;SDS011;37844;57.126;24.288;2022-08-21T03:32:03;24.98;;;7.85;;
51780;SDS011;37844;57.126;24.288;2022-08-21T03:34:29;34.55;;;7.47;;
51780;SDS011;37844;57.126;24.288;2022-08-21T03:36:54;25.17;;;6.53;;
51780;SDS011;37844;57.126;24.288;2022-08-21T03:39:20;31.52;;;9.18;;
51780;SDS011;37844;57.126;24.288;2022-08-21T03:41:45;15.18;;;7.82;;
51780;SDS011;37844;57.126;24.288;2022-08-21T03:44:12;37.80;;;7.75;;
51780;SDS011;37844;57.126;24.288;2022-08-21T03:46:37;23.25;;;6.88;;
51780;SDS011;37844;57.126;24.288;2022-08-21T03:49:03;32.67;;;7.75;;
51780;SDS011;37844;57.126;24.288;2022-08-21T03:51:28;25.67;;;8.18;;
51780;SDS011;37844;57.126;24.288;2022-08-21T03:53:53;23.77;;;6.72;;
51780;SDS011;37844;57.126;24.288;2022-08-21T03:56:19;19.13;;;7.25;;
51780;SDS011;37844;57.126;24.288;2022-08-21T03:58:44;29.02;;;7.78;;
51780;SDS011;37844;57.126;24.288;2022-08-21T04:01:10;20.92;;;7.70;;
51780;SDS011;37844;57.126;24.288;2022-08-21T04:03:36;27.25;;;7.63;;
51780;SDS011;37844;57.126;24.288;2022-08-21T04:06:02;31.67;;;7.07;;
51780;SDS011;37844;57.126;24.288;2022-08-21T04:08:27;20.83;;;7.72;;
51780;SDS011;37844;57.126;24.288;2022-08-21T04:10:53;38.45;;;9.10;;
51780;SDS011;37844;57.126;24.288;2022-08-21T04:13:20;19.73;;;7.63;;
51780;SDS011;37844;57.126;24.288;2022-08-21T04:15:45;28.42;;;7.57;;
51780;SDS011;37844;57.126;24.288;2022-08-21T04:18:11;19.13;;;8.05;;
51780;SDS011;37844;57.126;24.288;2022-08-21T04:20:36;28.85;;;8.32;;
51780;SDS011;37844;57.126;24.288;2022-08-21T04:23:02;30.55;;;7.47;;
51780;SDS011;37844;57.126;24.288;2022-08-21T04:25:28;20.17;;;6.93;;
51780;SDS011;37844;57.126;24.288;2022-08-21T04:27:53;28.20;;;6.88;;
51780;SDS011;37844;57.126;24.288;2022-08-21T04:30:19;27.48;;;7.10;;
51780;SDS011;37844;57.126;24.288;2022-08-21T04:32:45;22.00;;;7.95;;
51780;SDS011;37844;57.126;24.288;2022-08-21T04:35:11;31.00;;;7.68;;
51780;SDS011;37844;57.126;24.288;2022-08-21T04:37:37;21.58;;;9.60;;
51780;SDS011;37844;57.126;24.288;2022-08-21T04:40:03;29.38;;;7.55;;
51780;SDS011;37844;57.126;24.288;2022-08-21T04:42:29;29.60;;;7.80;;
51780;SDS011;37844;57.126;24.288;2022-08-21T04:44:54;11.95;;;6.13;;
51780;SDS011;37844;57.126;24.288;2022-08-21T04:47:21;32.45;;;8.63;;
51780;SDS011;37844;57.126;24.288;2022-08-21T04:49:46;16.50;;;7.25;;
51780;SDS011;37844;57.126;24.288;2022-08-21T04:52:13;22.35;;;6.82;;
51780;SDS011;37844;57.126;24.288;2022-08-21T04:54:40;23.35;;;6.72;;
51780;SDS011;37844;57.126;24.288;2022-08-21T04:57:08;17.27;;;6.68;;
51780;SDS011;37844;57.126;24.288;2022-08-21T04:59:37;29.48;;;7.88;;
51780;SDS011;37844;57.126;24.288;2022-08-21T05:02:03;29.38;;;6.45;;
51780;SDS011;37844;57.126;24.288;2022-08-21T05:04:30;40.15;;;8.80;;
51780;SDS011;37844;57.126;24.288;2022-08-21T05:06:58;38.47;;;9.25;;
51780;SDS011;37844;57.126;24.288;2022-08-21T05:09:25;30.42;;;8.27;;
51780;SDS011;37844;57.126;24.288;2022-08-21T05:11:50;24.77;;;8.38;;
51780;SDS011;37844;57.126;24.288;2022-08-21T05:14:17;25.33;;;6.88;;
51780;SDS011;37844;57.126;24.288;2022-08-21T05:16:43;28.13;;;5.95;;
51780;SDS011;37844;57.126;24.288;2022-08-21T05:19:09;43.13;;;9.20;;
51780;SDS011;37844;57.126;24.288;2022-08-21T05:21:35;22.77;;;6.97;;
51780;SDS011;37844;57.126;24.288;2022-08-21T05:24:00;41.05;;;6.05;;
51780;SDS011;37844;57.126;24.288;2022-08-21T05:26:26;22.70;;;7.20;;
51780;SDS011;37844;57.126;24.288;2022-08-21T05:28:51;23.90;;;6.82;;
51780;SDS011;37844;57.126;24.288;2022-08-21T05:31:17;22.17;;;8.10;;
51780;SDS011;37844;57.126;24.288;2022-08-21T05:33:42;29.38;;;6.85;;
51780;SDS011;37844;57.126;24.288;2022-08-21T05:36:08;21.95;;;6.03;;
51780;SDS011;37844;57.126;24.288;2022-08-21T05:38:34;23.48;;;6.93;;
51780;SDS011;37844;57.126;24.288;2022-08-21T05:40:59;25.27;;;6.88;;
51780;SDS011;37844;57.126;24.288;2022-08-21T05:43:24;17.20;;;6.72;;
51780;SDS011;37844;57.126;24.288;2022-08-21T05:45:50;23.95;;;6.97;;
51780;SDS011;37844;57.126;24.288;2022-08-21T05:48:16;25.80;;;7.57;;
51780;SDS011;37844;57.126;24.288;2022-08-21T05:50:45;25.40;;;8.10;;
51780;SDS011;37844;57.126;24.288;2022-08-21T05:53:11;25.23;;;7.55;;
51780;SDS011;37844;57.126;24.288;2022-08-21T05:55:36;23.70;;;7.20;;
51780;SDS011;37844;57.126;24.288;2022-08-21T05:58:03;29.90;;;8.23;;
51780;SDS011;37844;57.126;24.288;2022-08-21T06:00:28;19.50;;;6.65;;
51780;SDS011;37844;57.126;24.288;2022-08-21T06:02:53;26.02;;;6.70;;
51780;SDS011;37844;57.126;24.288;2022-08-21T06:05:19;20.90;;;6.05;;
51780;SDS011;37844;57.126;24.288;2022-08-21T06:07:44;20.67;;;6.35;;
51780;SDS011;37844;57.126;24.288;2022-08-21T06:10:09;31.77;;;6.65;;
51780;SDS011;37844;57.126;24.288;2022-08-21T06:12:35;25.15;;;7.15;;
51780;SDS011;37844;57.126;24.288;2022-08-21T06:15:01;17.48;;;6.57;;
51780;SDS011;37844;57.126;24.288;2022-08-21T06:17:26;25.00;;;6.95;;
51780;SDS011;37844;57.126;24.288;2022-08-21T06:19:53;30.92;;;8.10;;
51780;SDS011;37844;57.126;24.288;2022-08-21T06:22:19;27.00;;;5.97;;
51780;SDS011;37844;57.126;24.288;2022-08-21T06:24:44;17.40;;;6.55;;
51780;SDS011;37844;57.126;24.288;2022-08-21T06:27:10;30.58;;;7.35;;
51780;SDS011;37844;57.126;24.288;2022-08-21T06:29:35;17.50;;;5.47;;
51780;SDS011;37844;57.126;24.288;2022-08-21T06:32:01;27.10;;;6.38;;
51780;SDS011;37844;57.126;24.288;2022-08-21T06:34:26;26.20;;;5.70;;
51780;SDS011;37844;57.126;24.288;2022-08-21T06:36:52;24.00;;;6.13;;
51780;SDS011;37844;57.126;24.288;2022-08-21T06:39:17;19.85;;;7.60;;
51780;SDS011;37844;57.126;24.288;2022-08-21T06:41:43;22.20;;;5.63;;
51780;SDS011;37844;57.126;24.288;2022-08-21T06:44:08;22.77;;;6.88;;
51780;SDS011;37844;57.126;24.288;2022-08-21T06:46:34;18.17;;;5.95;;
51780;SDS011;37844;57.126;24.288;2022-08-21T06:48:59;52.53;;;7.63;;
51780;SDS011;37844;57.126;24.288;2022-08-21T06:51:25;44.17;;;7.28;;
51780;SDS011;37844;57.126;24.288;2022-08-21T06:53:51;18.42;;;5.07;;
51780;SDS011;37844;57.126;24.288;2022-08-21T06:56:17;19.25;;;5.72;;
51780;SDS011;37844;57.126;24.288;2022-08-21T06:59:01;25.85;;;7.13;;
51780;SDS011;37844;57.126;24.288;2022-08-21T07:01:27;18.33;;;6.35;;
51780;SDS011;37844;57.126;24.288;2022-08-21T07:03:52;17.73;;;5.13;;
51780;SDS011;37844;57.126;24.288;2022-08-21T07:06:18;31.40;;;5.85;;
51780;SDS011;37844;57.126;24.288;2022-08-21T07:08:43;27.02;;;5.95;;
51780;SDS011;37844;57.126;24.288;2022-08-21T07:11:11;35.35;;;5.78;;
51780;SDS011;37844;57.126;24.288;2022-08-21T07:13:37;27.20;;;6.68;;
51780;SDS011;37844;57.126;24.288;2022-08-21T07:16:02;19.23;;;5.38;;
51780;SDS011;37844;57.126;24.288;2022-08-21T07:18:28;33.95;;;6.13;;
51780;SDS011;37844;57.126;24.288;2022-08-21T07:20:53;24.85;;;6.40;;
51780;SDS011;37844;57.126;24.288;2022-08-21T07:23:22;15.50;;;5.00;;
51780;SDS011;37844;57.126;24.288;2022-08-21T07:25:48;25.45;;;5.82;;
51780;SDS011;37844;57.126;24.288;2022-08-21T07:28:13;19.45;;;4.72;;
51780;SDS011;37844;57.126;24.288;2022-08-21T07:30:39;18.33;;;5.20;;
51780;SDS011;37844;57.126;24.288;2022-08-21T07:33:04;16.77;;;4.93;;
51780;SDS011;37844;57.126;24.288;2022-08-21T07:35:29;24.98;;;5.03;;
51780;SDS011;37844;57.126;24.288;2022-08-21T07:37:56;17.90;;;5.38;;
51780;SDS011;37844;57.126;24.288;2022-08-21T07:40:21;18.92;;;5.57;;
51780;SDS011;37844;57.126;24.288;2022-08-21T07:42:47;16.80;;;4.95;;
51780;SDS011;37844;57.126;24.288;2022-08-21T07:45:15;17.30;;;4.45;;
51780;SDS011;37844;57.126;24.288;2022-08-21T07:47:41;24.23;;;5.25;;
51780;SDS011;37844;57.126;24.288;2022-08-21T07:50:06;24.42;;;4.60;;
51780;SDS011;37844;57.126;24.288;2022-08-21T07:52:32;27.35;;;6.10;;
51780;SDS011;37844;57.126;24.288;2022-08-21T07:55:04;20.60;;;4.57;;
51780;SDS011;37844;57.126;24.288;2022-08-21T07:57:30;17.73;;;4.35;;
51780;SDS011;37844;57.126;24.288;2022-08-21T08:00:09;18.13;;;5.57;;
51780;SDS011;37844;57.126;24.288;2022-08-21T08:02:35;19.90;;;4.30;;
51780;SDS011;37844;57.126;24.288;2022-08-21T08:05:02;12.50;;;3.78;;
51780;SDS011;37844;57.126;24.288;2022-08-21T08:07:28;16.15;;;4.00;;
51780;SDS011;37844;57.126;24.288;2022-08-21T08:09:53;15.60;;;4.63;;
51780;SDS011;37844;57.126;24.288;2022-08-21T08:12:19;22.92;;;4.53;;
51780;SDS011;37844;57.126;24.288;2022-08-21T08:14:45;11.98;;;3.17;;
51780;SDS011;37844;57.126;24.288;2022-08-21T08:17:10;12.90;;;4.10;;
51780;SDS011;37844;57.126;24.288;2022-08-21T08:19:35;7.90;;;3.50;;
51780;SDS011;37844;57.126;24.288;2022-08-21T08:22:01;16.48;;;4.00;;
51780;SDS011;37844;57.126;24.288;2022-08-21T08:24:26;10.35;;;3.90;;
51780;SDS011;37844;57.126;24.288;2022-08-21T08:26:52;10.57;;;4.20;;
51780;SDS011;37844;57.126;24.288;2022-08-21T08:29:19;22.80;;;4.82;;
51780;SDS011;37844;57.126;24.288;2022-08-21T08:31:44;18.50;;;3.78;;
51780;SDS011;37844;57.126;24.288;2022-08-21T08:34:10;15.95;;;3.65;;
51780;SDS011;37844;57.126;24.288;2022-08-21T08:36:36;15.30;;;3.90;;
51780;SDS011;37844;57.126;24.288;2022-08-21T08:39:02;18.20;;;4.88;;
51780;SDS011;37844;57.126;24.288;2022-08-21T08:41:28;9.68;;;3.33;;
51780;SDS011;37844;57.126;24.288;2022-08-21T08:43:56;10.05;;;2.80;;
51780;SDS011;37844;57.126;24.288;2022-08-21T08:46:30;12.30;;;3.38;;
51780;SDS011;37844;57.126;24.288;2022-08-21T08:48:58;10.07;;;4.03;;
51780;SDS011;37844;57.126;24.288;2022-08-21T08:51:34;14.13;;;3.88;;
51780;SDS011;37844;57.126;24.288;2022-08-21T08:54:03;16.70;;;4.15;;
51780;SDS011;37844;57.126;24.288;2022-08-21T08:56:32;14.18;;;4.38;;
51780;SDS011;37844;57.126;24.288;2022-08-21T08:59:02;14.55;;;4.07;;
51780;SDS011;37844;57.126;24.288;2022-08-21T09:01:32;13.07;;;3.75;;
51780;SDS011;37844;57.126;24.288;2022-08-21T09:03:58;13.30;;;4.22;;
51780;SDS011;37844;57.126;24.288;2022-08-21T09:06:35;17.30;;;4.20;;
51780;SDS011;37844;57.126;24.288;2022-08-21T09:11:41;17.95;;;4.18;;
51780;SDS011;37844;57.126;24.288;2022-08-21T09:14:23;14.18;;;4.43;;
51780;SDS011;37844;57.126;24.288;2022-08-21T09:21:53;18.58;;;4.20;;
51780;SDS011;37844;57.126;24.288;2022-08-21T09:27:12;10.35;;;3.20;;
51780;SDS011;37844;57.126;24.288;2022-08-21T09:29:47;10.88;;;4.22;;
51780;SDS011;37844;57.126;24.288;2022-08-21T09:32:26;14.35;;;4.20;;
51780;SDS011;37844;57.126;24.288;2022-08-21T09:37:23;10.35;;;2.97;;
51780;SDS011;37844;57.126;24.288;2022-08-21T09:39:49;22.10;;;3.58;;
51780;SDS011;37844;57.126;24.288;2022-08-21T09:42:21;16.02;;;4.50;;
51780;SDS011;37844;57.126;24.288;2022-08-21T09:44:46;17.58;;;3.80;;
51780;SDS011;37844;57.126;24.288;2022-08-21T09:47:12;16.60;;;4.40;;
51780;SDS011;37844;57.126;24.288;2022-08-21T09:49:39;13.27;;;4.38;;
51780;SDS011;37844;57.126;24.288;2022-08-21T09:52:06;16.40;;;4.45;;
51780;SDS011;37844;57.126;24.288;2022-08-21T09:54:40;12.10;;;3.60;;
51780;SDS011;37844;57.126;24.288;2022-08-21T09:59:49;22.90;;;6.30;;
51780;SDS011;37844;57.126;24.288;2022-08-21T10:04:49;12.65;;;4.47;;
51780;SDS011;37844;57.126;24.288;2022-08-21T10:07:14;13.52;;;3.72;;
51780;SDS011;37844;57.126;24.288;2022-08-21T10:09:41;17.65;;;3.85;;
51780;SDS011;37844;57.126;24.288;2022-08-21T10:17:11;20.35;;;4.85;;
51780;SDS011;37844;57.126;24.288;2022-08-21T10:19:43;10.40;;;4.40;;
51780;SDS011;37844;57.126;24.288;2022-08-21T10:27:14;23.98;;;4.90;;
51780;SDS011;37844;57.126;24.288;2022-08-21T10:43:26;26.38;;;6.20;;
51780;SDS011;37844;57.126;24.288;2022-08-21T10:48:06;26.40;;;5.43;;
51780;SDS011;37844;57.126;24.288;2022-08-21T10:50:40;20.50;;;4.85;;
51780;SDS011;37844;57.126;24.288;2022-08-21T10:55:52;25.58;;;5.80;;
51780;SDS011;37844;57.126;24.288;2022-08-21T10:58:28;18.65;;;4.70;;
51780;SDS011;37844;57.126;24.288;2022-08-21T11:01:07;14.60;;;4.97;;
51780;SDS011;37844;57.126;24.288;2022-08-21T11:03:42;16.15;;;3.92;;
51780;SDS011;37844;57.126;24.288;2022-08-21T11:06:16;17.08;;;7.82;;
51780;SDS011;37844;57.126;24.288;2022-08-21T11:08:44;10.38;;;5.40;;
51780;SDS011;37844;57.126;24.288;2022-08-21T11:11:12;16.25;;;5.22;;
51780;SDS011;37844;57.126;24.288;2022-08-21T11:16:25;20.63;;;4.85;;
51780;SDS011;37844;57.126;24.288;2022-08-21T11:26:39;18.83;;;4.70;;
51780;SDS011;37844;57.126;24.288;2022-08-21T11:29:39;24.45;;;4.43;;
51780;SDS011;37844;57.126;24.288;2022-08-21T11:37:04;24.70;;;4.38;;
51780;SDS011;37844;57.126;24.288;2022-08-21T11:39:41;9.57;;;4.55;;
51780;SDS011;37844;57.126;24.288;2022-08-21T11:45:02;8.90;;;4.90;;
51780;SDS011;37844;57.126;24.288;2022-08-21T11:47:51;15.55;;;4.53;;
51780;SDS011;37844;57.126;24.288;2022-08-21T11:50:21;21.52;;;5.10;;
51780;SDS011;37844;57.126;24.288;2022-08-21T11:58:01;15.10;;;4.72;;
51780;SDS011;37844;57.126;24.288;2022-08-21T12:00:33;16.15;;;4.72;;
51780;SDS011;37844;57.126;24.288;2022-08-21T12:03:06;16.52;;;5.25;;
51780;SDS011;37844;57.126;24.288;2022-08-21T12:05:34;18.67;;;4.72;;
51780;SDS011;37844;57.126;24.288;2022-08-21T12:08:14;23.83;;;6.70;;
51780;SDS011;37844;57.126;24.288;2022-08-21T12:13:26;93.50;;;48.30;;
51780;SDS011;37844;57.126;24.288;2022-08-21T12:15:52;82.88;;;40.92;;
51780;SDS011;37844;57.126;24.288;2022-08-21T12:18:22;67.88;;;34.10;;
51780;SDS011;37844;57.126;24.288;2022-08-21T12:21:02;22.65;;;5.95;;
51780;SDS011;37844;57.126;24.288;2022-08-21T12:23:31;42.70;;;6.22;;
51780;SDS011;37844;57.126;24.288;2022-08-21T12:26:02;14.40;;;5.50;;
51780;SDS011;37844;57.126;24.288;2022-08-21T12:28:28;16.73;;;5.13;;
51780;SDS011;37844;57.126;24.288;2022-08-21T12:30:54;23.48;;;6.53;;
51780;SDS011;37844;57.126;24.288;2022-08-21T12:33:24;20.92;;;4.05;;
51780;SDS011;37844;57.126;24.288;2022-08-21T12:36:01;22.38;;;6.75;;
51780;SDS011;37844;57.126;24.288;2022-08-21T12:38:28;15.05;;;4.63;;
51780;SDS011;37844;57.126;24.288;2022-08-21T12:40:59;28.33;;;4.70;;
51780;SDS011;37844;57.126;24.288;2022-08-21T12:45:53;21.25;;;6.22;;
51780;SDS011;37844;57.126;24.288;2022-08-21T12:53:42;19.08;;;6.47;;
51780;SDS011;37844;57.126;24.288;2022-08-21T12:56:10;24.30;;;5.75;;
51780;SDS011;37844;57.126;24.288;2022-08-21T12:58:35;14.00;;;5.10;;
51780;SDS011;37844;57.126;24.288;2022-08-21T13:01:23;18.35;;;5.47;;
51780;SDS011;37844;57.126;24.288;2022-08-21T13:03:49;17.67;;;4.55;;
51780;SDS011;37844;57.126;24.288;2022-08-21T13:06:15;27.55;;;6.03;;
51780;SDS011;37844;57.126;24.288;2022-08-21T13:08:42;42.08;;;5.97;;
51780;SDS011;37844;57.126;24.288;2022-08-21T13:11:07;20.63;;;4.85;;
51780;SDS011;37844;57.126;24.288;2022-08-21T13:13:34;18.60;;;5.93;;
51780;SDS011;37844;57.126;24.288;2022-08-21T13:16:04;24.00;;;5.18;;
51780;SDS011;37844;57.126;24.288;2022-08-21T13:18:32;18.02;;;7.10;;
51780;SDS011;37844;57.126;24.288;2022-08-21T13:21:14;16.67;;;5.00;;
51780;SDS011;37844;57.126;24.288;2022-08-21T13:23:39;21.55;;;4.97;;
51780;SDS011;37844;57.126;24.288;2022-08-21T13:26:15;22.70;;;5.18;;
51780;SDS011;37844;57.126;24.288;2022-08-21T13:28:41;19.38;;;4.93;;
51780;SDS011;37844;57.126;24.288;2022-08-21T13:31:08;14.45;;;5.20;;
51780;SDS011;37844;57.126;24.288;2022-08-21T13:33:35;21.13;;;5.60;;
51780;SDS011;37844;57.126;24.288;2022-08-21T13:36:07;23.27;;;4.93;;
51780;SDS011;37844;57.126;24.288;2022-08-21T13:38:34;24.40;;;6.05;;
51780;SDS011;37844;57.126;24.288;2022-08-21T13:41:04;24.48;;;7.20;;
51780;SDS011;37844;57.126;24.288;2022-08-21T13:43:32;17.25;;;5.13;;
51780;SDS011;37844;57.126;24.288;2022-08-21T13:45:58;21.70;;;6.75;;
51780;SDS011;37844;57.126;24.288;2022-08-21T13:48:25;17.90;;;6.00;;
51780;SDS011;37844;57.126;24.288;2022-08-21T13:50:51;18.10;;;6.18;;
51780;SDS011;37844;57.126;24.288;2022-08-21T13:53:21;21.52;;;6.28;;
51780;SDS011;37844;57.126;24.288;2022-08-21T13:55:47;14.20;;;5.25;;
51780;SDS011;37844;57.126;24.288;2022-08-21T13:58:13;23.77;;;5.28;;
51780;SDS011;37844;57.126;24.288;2022-08-21T14:00:49;22.15;;;5.10;;
51780;SDS011;37844;57.126;24.288;2022-08-21T14:03:23;22.10;;;5.20;;
51780;SDS011;37844;57.126;24.288;2022-08-21T14:05:51;26.90;;;5.22;;
51780;SDS011;37844;57.126;24.288;2022-08-21T14:08:35;19.63;;;5.05;;
51780;SDS011;37844;57.126;24.288;2022-08-21T14:11:02;28.40;;;4.65;;
51780;SDS011;37844;57.126;24.288;2022-08-21T14:13:30;19.08;;;5.10;;
51780;SDS011;37844;57.126;24.288;2022-08-21T14:15:59;18.52;;;4.90;;
51780;SDS011;37844;57.126;24.288;2022-08-21T14:18:24;20.08;;;5.63;;
51780;SDS011;37844;57.126;24.288;2022-08-21T14:20:51;26.23;;;5.05;;
51780;SDS011;37844;57.126;24.288;2022-08-21T14:23:26;21.90;;;5.05;;
51780;SDS011;37844;57.126;24.288;2022-08-21T14:25:52;19.15;;;5.20;;
51780;SDS011;37844;57.126;24.288;2022-08-21T14:28:26;18.92;;;5.28;;
51780;SDS011;37844;57.126;24.288;2022-08-21T14:30:52;25.77;;;6.35;;
51780;SDS011;37844;57.126;24.288;2022-08-21T14:33:22;24.38;;;5.50;;
51780;SDS011;37844;57.126;24.288;2022-08-21T14:35:49;29.92;;;5.72;;
51780;SDS011;37844;57.126;24.288;2022-08-21T14:38:19;17.45;;;5.70;;
51780;SDS011;37844;57.126;24.288;2022-08-21T14:40:47;20.55;;;5.13;;
51780;SDS011;37844;57.126;24.288;2022-08-21T14:43:13;19.90;;;4.18;;
51780;SDS011;37844;57.126;24.288;2022-08-21T14:45:39;12.55;;;4.57;;
51780;SDS011;37844;57.126;24.288;2022-08-21T14:48:05;19.35;;;5.15;;
51780;SDS011;37844;57.126;24.288;2022-08-21T14:50:31;18.23;;;6.63;;
51780;SDS011;37844;57.126;24.288;2022-08-21T14:52:56;18.75;;;5.10;;
51780;SDS011;37844;57.126;24.288;2022-08-21T14:55:22;23.73;;;6.68;;
51780;SDS011;37844;57.126;24.288;2022-08-21T14:57:48;17.13;;;4.97;;
51780;SDS011;37844;57.126;24.288;2022-08-21T15:00:15;35.80;;;6.65;;
51780;SDS011;37844;57.126;24.288;2022-08-21T15:02:42;15.63;;;4.28;;
51780;SDS011;37844;57.126;24.288;2022-08-21T15:05:07;15.48;;;5.25;;
51780;SDS011;37844;57.126;24.288;2022-08-21T15:07:33;25.08;;;4.75;;
51780;SDS011;37844;57.126;24.288;2022-08-21T15:09:58;19.02;;;5.45;;
51780;SDS011;37844;57.126;24.288;2022-08-21T15:12:24;22.98;;;5.32;;
51780;SDS011;37844;57.126;24.288;2022-08-21T15:14:49;20.42;;;6.22;;
51780;SDS011;37844;57.126;24.288;2022-08-21T15:17:15;19.23;;;6.28;;
51780;SDS011;37844;57.126;24.288;2022-08-21T15:19:40;31.50;;;5.70;;
51780;SDS011;37844;57.126;24.288;2022-08-21T15:22:06;22.02;;;5.50;;
51780;SDS011;37844;57.126;24.288;2022-08-21T15:24:32;22.33;;;4.72;;
51780;SDS011;37844;57.126;24.288;2022-08-21T15:26:58;20.63;;;5.57;;
51780;SDS011;37844;57.126;24.288;2022-08-21T15:29:24;32.22;;;10.25;;
51780;SDS011;37844;57.126;24.288;2022-08-21T15:31:57;23.58;;;5.95;;
51780;SDS011;37844;57.126;24.288;2022-08-21T15:34:23;21.83;;;6.03;;
51780;SDS011;37844;57.126;24.288;2022-08-21T15:36:48;24.25;;;5.70;;
51780;SDS011;37844;57.126;24.288;2022-08-21T15:39:14;34.60;;;7.05;;
51780;SDS011;37844;57.126;24.288;2022-08-21T15:41:39;30.67;;;4.78;;
51780;SDS011;37844;57.126;24.288;2022-08-21T15:44:05;18.90;;;5.57;;
51780;SDS011;37844;57.126;24.288;2022-08-21T15:46:30;20.70;;;5.43;;